createdAt,value
2019-03-18T00:01:11.932Z,100725.16
2019-03-18T00:05:17.495Z,100736.59
2019-03-18T00:09:23.045Z,100725.20
2019-03-18T00:13:28.495Z,100729.24
2019-03-18T00:17:33.790Z,100720.48
2019-03-18T00:21:39.540Z,100732.62
2019-03-18T00:25:44.985Z,100741.38
2019-03-18T00:29:50.669Z,100748.38
2019-03-18T00:33:55.987Z,100738.63
2019-03-18T00:38:01.333Z,100744.84
2019-03-18T00:42:06.793Z,100747.41
2019-03-18T00:46:12.233Z,100764.28
2019-03-18T00:50:17.679Z,100751.09
2019-03-18T00:54:23.136Z,100755.87
2019-03-18T00:58:28.387Z,100756.55
2019-03-18T01:02:34.879Z,100756.70
2019-03-18T01:06:40.377Z,100763.42
2019-03-18T01:10:46.086Z,100769.02
2019-03-18T01:14:51.528Z,100773.59
2019-03-18T01:18:56.871Z,100772.81
2019-03-18T01:23:02.169Z,100773.44
2019-03-18T01:27:07.560Z,100771.94
2019-03-18T01:31:13.006Z,100776.17
2019-03-18T01:35:18.757Z,100773.88
2019-03-18T01:39:24.220Z,100764.27
2019-03-18T01:43:29.694Z,100781.92
2019-03-18T01:47:35.010Z,100782.09
2019-03-18T01:51:40.444Z,100783.20
2019-03-18T01:55:46.217Z,100783.98
2019-03-18T01:59:51.839Z,100787.84
2019-03-18T02:03:57.455Z,100784.34
2019-03-18T02:08:02.900Z,100779.30
2019-03-18T02:12:08.358Z,100781.28
2019-03-18T02:16:13.803Z,100780.22
2019-03-18T02:20:19.937Z,100781.43
2019-03-18T02:24:25.661Z,100783.45
2019-03-18T02:28:31.097Z,100780.72
2019-03-18T02:32:36.592Z,100782.75
2019-03-18T02:36:42.025Z,100780.11
2019-03-18T02:40:47.280Z,100791.59
2019-03-18T02:44:52.717Z,100790.36
2019-03-18T02:48:58.082Z,100795.96
2019-03-18T02:53:03.553Z,100805.59
2019-03-18T02:57:08.985Z,100820.54
2019-03-18T03:01:14.341Z,100827.02
2019-03-18T03:05:19.750Z,100855.98
2019-03-18T03:09:25.655Z,100862.44
2019-03-18T03:13:31.235Z,100855.88
2019-03-18T03:17:36.688Z,100844.02
2019-03-18T03:21:42.035Z,100842.06
2019-03-18T03:25:47.605Z,100857.66
2019-03-18T03:29:52.921Z,100862.25
2019-03-18T03:33:58.809Z,100865.13
2019-03-18T03:38:04.361Z,100858.13
2019-03-18T03:42:09.956Z,100864.94
2019-03-18T03:46:15.354Z,100861.25
2019-03-18T03:50:20.798Z,100859.01
2019-03-18T03:54:26.253Z,100859.01
2019-03-18T03:58:31.667Z,100871.94
2019-03-18T04:02:37.897Z,100875.73
2019-03-18T04:06:43.305Z,100875.95
2019-03-18T04:10:49.157Z,100881.11
2019-03-18T04:14:54.807Z,100890.69
2019-03-18T04:19:00.563Z,100911.50
2019-03-18T04:23:05.969Z,100911.24
2019-03-18T04:27:11.341Z,100922.45
2019-03-18T04:31:16.997Z,100921.86
2019-03-18T04:35:22.865Z,100906.75
2019-03-18T04:39:28.462Z,100920.34
2019-03-18T04:43:33.869Z,100921.34
2019-03-18T04:47:39.545Z,100915.89
2019-03-18T04:51:45.397Z,100932.53
2019-03-18T04:55:51.028Z,100935.58
2019-03-18T04:59:56.734Z,100940.76
2019-03-18T05:04:02.548Z,100951.52
2019-03-18T05:08:07.972Z,100960.42
2019-03-18T05:12:13.324Z,100960.13
2019-03-18T05:16:18.665Z,100972.98
2019-03-18T05:20:24.151Z,100981.20
2019-03-18T05:24:29.807Z,100987.16
2019-03-18T05:28:35.505Z,101000.26
2019-03-18T05:32:40.965Z,101007.44
2019-03-18T05:36:46.404Z,101016.69
2019-03-18T05:40:52.403Z,101020.13
2019-03-18T05:44:58.152Z,101014.75
2019-03-18T05:49:03.758Z,101022.86
2019-03-18T05:53:09.234Z,101030.53
2019-03-18T05:57:14.703Z,101032.61
2019-03-18T06:01:20.157Z,101039.73
2019-03-18T06:05:25.630Z,101048.47
2019-03-18T06:09:31.271Z,101050.55
2019-03-18T06:13:36.713Z,101064.11
2019-03-18T06:17:51.734Z,101061.44
2019-03-18T06:21:50.615Z,101071.41
2019-03-18T06:25:55.852Z,101088.27
2019-03-18T06:30:01.321Z,101096.95
2019-03-18T06:34:07.142Z,101104.19
2019-03-18T06:38:12.683Z,101097.66
2019-03-18T06:42:18.760Z,101101.32
2019-03-18T06:46:24.238Z,101107.24
2019-03-18T06:50:29.629Z,101114.06
2019-03-18T06:54:35.071Z,101116.45
2019-03-18T06:58:40.526Z,101129.28
2019-03-18T07:02:46.487Z,101127.05
2019-03-18T07:06:52.188Z,101134.33
2019-03-18T07:10:57.695Z,101136.72
2019-03-18T07:15:03.534Z,101142.49
2019-03-18T07:19:08.916Z,101143.11
2019-03-18T07:23:14.741Z,101143.47
2019-03-18T07:27:20.155Z,101151.97
2019-03-18T07:31:25.622Z,101163.19
2019-03-18T07:35:31.125Z,101157.84
2019-03-18T07:39:36.483Z,101175.51
2019-03-18T07:43:42.024Z,101186.14
2019-03-18T07:47:47.487Z,101190.92
2019-03-18T07:51:52.916Z,101202.38
2019-03-18T07:55:58.397Z,101208.16
2019-03-18T08:00:04.025Z,101216.29
2019-03-18T08:04:09.745Z,101212.25
2019-03-18T08:08:15.511Z,101225.77
2019-03-18T08:12:21.069Z,101235.52
2019-03-18T08:16:26.436Z,101246.92
2019-03-18T08:20:31.949Z,101265.00
2019-03-18T08:24:37.230Z,101260.44
2019-03-18T08:28:42.610Z,101272.20
2019-03-18T08:32:48.059Z,101266.73
2019-03-18T08:36:53.511Z,101267.91
2019-03-18T08:40:58.948Z,101267.56
2019-03-18T08:45:04.388Z,101268.76
2019-03-18T08:49:10.071Z,101273.19
2019-03-18T08:53:15.534Z,101280.20
2019-03-18T08:57:20.964Z,101277.48
2019-03-18T09:01:26.492Z,101286.80
2019-03-18T09:05:32.184Z,101290.41
2019-03-18T09:09:37.554Z,101301.48
2019-03-18T09:13:43.459Z,101299.02
2019-03-18T09:17:48.925Z,101302.44
2019-03-18T09:21:54.345Z,101312.41
2019-03-18T09:25:59.781Z,101316.73
2019-03-18T09:30:05.509Z,101317.49
2019-03-18T09:34:10.866Z,101317.05
2019-03-18T09:38:16.296Z,101314.63
2019-03-18T09:42:21.814Z,101317.69
2019-03-18T09:46:27.253Z,101325.18
2019-03-18T09:50:32.714Z,101321.53
2019-03-18T09:54:46.346Z,101330.01
2019-03-18T09:58:54.180Z,101333.80
2019-03-18T10:02:59.939Z,101346.23
2019-03-18T10:07:05.507Z,101346.13
2019-03-18T10:11:10.853Z,101347.14
2019-03-18T10:15:16.365Z,101355.27
2019-03-18T10:19:32.748Z,101359.25
2019-03-18T10:23:28.883Z,101359.73
2019-03-18T10:27:34.425Z,101361.87
2019-03-18T10:31:39.869Z,101368.53
2019-03-18T10:35:45.251Z,101371.27
2019-03-18T10:39:50.972Z,101380.08
2019-03-18T10:43:56.318Z,101383.04
2019-03-18T10:48:01.764Z,101389.67
2019-03-18T10:52:07.220Z,101394.05
2019-03-18T10:56:12.503Z,101396.41
2019-03-18T11:00:17.950Z,101396.62
2019-03-18T11:04:23.522Z,101400.16
2019-03-18T11:08:29.201Z,101401.83
2019-03-18T11:12:35.045Z,101405.41
2019-03-18T11:16:40.564Z,101405.96
2019-03-18T11:20:45.946Z,101420.58
2019-03-18T11:24:51.466Z,101410.25
2019-03-18T11:28:56.829Z,101411.25
2019-03-18T11:33:02.283Z,101425.29
2019-03-18T11:37:08.176Z,101406.33
2019-03-18T11:41:13.955Z,101420.50
2019-03-18T11:45:21.000Z,101418.66
2019-03-18T11:49:38.819Z,101416.36
2019-03-18T11:53:33.969Z,101419.42
2019-03-18T11:57:39.398Z,101424.88
2019-03-18T12:01:45.242Z,101429.64
2019-03-18T12:05:50.624Z,101432.43
2019-03-18T12:09:56.078Z,101431.70
2019-03-18T12:14:01.549Z,101448.94
2019-03-18T12:18:07.236Z,101448.03
2019-03-18T12:22:12.688Z,101450.79
2019-03-18T12:26:18.136Z,101458.69
2019-03-18T12:30:23.572Z,101461.06
2019-03-18T12:34:28.975Z,101470.58
2019-03-18T12:38:34.645Z,101483.44
2019-03-18T12:42:40.144Z,101483.03
2019-03-18T12:46:46.320Z,101491.48
2019-03-18T12:50:56.328Z,101495.63
2019-03-18T12:54:58.892Z,101476.76
2019-03-18T12:59:04.343Z,101482.74
2019-03-18T13:03:09.771Z,101481.63
2019-03-18T13:07:15.536Z,101474.53
2019-03-18T13:11:22.343Z,101475.54
2019-03-18T13:15:27.791Z,101471.27
2019-03-18T13:19:33.191Z,101466.99
2019-03-18T13:23:38.756Z,101468.35
2019-03-18T13:27:44.265Z,101470.64
2019-03-18T13:31:50.081Z,101472.41
2019-03-18T13:35:55.543Z,101480.78
2019-03-18T13:40:01.016Z,101475.61
2019-03-18T13:44:06.537Z,101478.69
2019-03-18T13:48:12.062Z,101478.38
2019-03-18T13:52:18.900Z,101473.43
2019-03-18T13:56:24.414Z,101480.62
2019-03-18T14:00:31.156Z,101471.51
2019-03-18T14:04:36.707Z,101476.38
2019-03-18T14:08:42.199Z,101473.27
2019-03-18T14:12:47.636Z,101471.66
2019-03-18T14:16:53.565Z,101462.88
2019-03-18T14:20:59.270Z,101478.02
2019-03-18T14:25:05.089Z,101478.51
2019-03-18T14:29:10.724Z,101490.42
2019-03-18T14:33:16.172Z,101486.86
2019-03-18T14:37:33.524Z,101480.31
2019-03-18T14:41:41.599Z,101473.58
2019-03-18T14:45:50.858Z,101490.04
2019-03-18T14:50:09.036Z,101482.19
2019-03-18T14:54:23.038Z,101473.51
2019-03-18T14:58:28.559Z,101480.72
2019-03-18T15:02:51.760Z,101488.19
2019-03-18T15:07:07.868Z,101500.10
2019-03-18T15:11:20.155Z,101514.63
2019-03-18T15:15:29.532Z,101498.16
2019-03-18T15:19:39.090Z,101509.17
2019-03-18T15:24:01.660Z,101517.48
2019-03-18T15:28:13.290Z,101526.38
2019-03-18T15:32:18.953Z,101529.70
2019-03-18T15:36:41.242Z,101533.50
2019-03-18T15:41:07.970Z,101535.66
2019-03-18T15:45:30.149Z,101536.44
2019-03-18T15:49:54.487Z,101547.16
2019-03-18T15:54:12.370Z,101549.12
2019-03-18T15:58:24.565Z,101544.06
2019-03-18T16:02:30.104Z,101557.94
2019-03-18T16:06:36.223Z,101571.29
2019-03-18T16:10:42.028Z,101575.49
2019-03-18T16:14:47.620Z,101572.61
2019-03-18T16:18:53.156Z,101571.59
2019-03-18T16:22:58.668Z,101573.92
2019-03-18T16:27:04.134Z,101581.39
2019-03-18T16:31:09.704Z,101578.49
2019-03-18T16:35:16.178Z,101583.53
2019-03-18T16:39:22.226Z,101589.83
2019-03-18T16:43:27.927Z,101598.59
2019-03-18T16:47:33.347Z,101613.73
2019-03-18T16:51:38.788Z,101608.52
2019-03-18T16:55:44.562Z,101614.16
2019-03-18T16:59:50.141Z,101631.20
2019-03-18T17:03:55.845Z,101633.79
2019-03-18T17:08:01.121Z,101644.90
2019-03-18T17:12:06.552Z,101653.41
2019-03-18T17:16:12.171Z,101657.69
2019-03-18T17:20:17.849Z,101665.19
2019-03-18T17:24:23.296Z,101670.35
2019-03-18T17:28:29.381Z,101674.97
2019-03-18T17:32:34.871Z,101680.41
2019-03-18T17:36:40.632Z,101678.81
2019-03-18T17:40:45.952Z,101686.22
2019-03-18T17:44:51.390Z,101691.84
2019-03-18T17:48:56.681Z,101695.14
2019-03-18T17:53:03.997Z,101703.95
2019-03-18T17:57:11.141Z,101699.51
2019-03-18T18:01:16.628Z,101702.44
2019-03-18T18:05:22.045Z,101710.98
2019-03-18T18:09:27.590Z,101719.66
2019-03-18T18:13:32.950Z,101716.42
2019-03-18T18:17:43.336Z,101727.94
2019-03-18T18:21:48.797Z,101729.94
2019-03-18T18:25:55.567Z,101735.30
2019-03-18T18:30:01.113Z,101746.72
2019-03-18T18:34:06.850Z,101755.55
2019-03-18T18:38:12.813Z,101755.05
2019-03-18T18:42:18.537Z,101759.67
2019-03-18T18:46:23.978Z,101763.42
2019-03-18T18:50:29.412Z,101777.69
2019-03-18T18:54:34.992Z,101782.63
2019-03-18T18:58:40.364Z,101794.50
2019-03-18T19:02:45.801Z,101793.46
2019-03-18T19:06:51.246Z,101787.92
2019-03-18T19:10:56.773Z,101793.58
2019-03-18T19:15:02.133Z,101800.38
2019-03-18T19:19:07.533Z,101810.09
2019-03-18T19:23:12.910Z,101812.81
2019-03-18T19:27:18.287Z,101824.30
2019-03-18T19:31:23.754Z,101820.56
2019-03-18T19:35:29.097Z,101822.03
2019-03-18T19:39:34.699Z,101825.28
2019-03-18T19:43:40.048Z,101823.91
2019-03-18T19:47:45.514Z,101837.83
2019-03-18T19:51:51.215Z,101851.50
2019-03-18T19:55:56.594Z,101858.11
2019-03-18T20:00:01.999Z,101855.18
2019-03-18T20:04:07.514Z,101864.24
2019-03-18T20:08:12.879Z,101862.20
2019-03-18T20:12:18.611Z,101860.67
2019-03-18T20:16:24.027Z,101872.06
2019-03-18T20:20:29.445Z,101883.15
2019-03-18T20:24:35.119Z,101880.84
2019-03-18T20:28:40.558Z,101890.26
2019-03-18T20:32:46.058Z,101898.59
2019-03-18T20:36:51.638Z,101902.56
2019-03-18T20:40:57.146Z,101908.44
2019-03-18T20:45:02.595Z,101915.86
2019-03-18T20:49:08.520Z,101919.58
2019-03-18T20:53:13.927Z,101919.48
2019-03-18T20:57:20.534Z,101921.59
2019-03-18T21:01:25.971Z,101927.53
2019-03-18T21:05:31.632Z,101936.20
2019-03-18T21:09:37.079Z,101942.11
2019-03-18T21:13:42.565Z,101945.98
2019-03-18T21:17:48.015Z,101955.05
2019-03-18T21:21:53.580Z,101953.41
2019-03-18T21:25:58.929Z,101969.20
2019-03-18T21:30:04.921Z,101974.88
2019-03-18T21:34:10.408Z,101981.97
2019-03-18T21:38:15.915Z,101983.31
2019-03-18T21:42:21.637Z,101988.46
2019-03-18T21:46:27.206Z,101992.25
2019-03-18T21:50:32.933Z,101998.45
2019-03-18T21:54:38.214Z,102007.27
2019-03-18T21:58:43.799Z,102006.65
2019-03-18T22:02:49.252Z,102004.59
2019-03-18T22:06:54.715Z,102002.41
2019-03-18T22:11:00.137Z,102010.64
2019-03-18T22:15:06.637Z,102003.41
2019-03-18T22:19:11.993Z,102010.42
2019-03-18T22:23:17.795Z,102013.35
2019-03-18T22:27:23.143Z,102007.27
2019-03-18T22:31:28.524Z,102014.42
2019-03-18T22:35:34.100Z,102019.06
2019-03-18T22:39:39.545Z,102020.31
2019-03-18T22:43:44.997Z,102022.08
2019-03-18T22:47:50.506Z,102028.69
2019-03-18T22:51:55.947Z,102036.50
2019-03-18T22:56:01.661Z,102046.39
2019-03-18T23:00:15.763Z,102042.59
2019-03-18T23:04:21.076Z,102036.77
2019-03-18T23:08:26.617Z,102043.19
2019-03-18T23:12:32.039Z,102049.63
2019-03-18T23:16:37.440Z,102052.63
2019-03-18T23:20:42.697Z,102055.31
2019-03-18T23:24:48.152Z,102048.11
2019-03-18T23:28:53.899Z,102056.36
2019-03-18T23:32:59.354Z,102065.46
2019-03-18T23:37:04.816Z,102072.38
2019-03-18T23:41:10.246Z,102064.23
2019-03-18T23:45:15.791Z,102069.56
2019-03-18T23:49:21.436Z,102069.83
2019-03-18T23:53:26.893Z,102069.92
2019-03-18T23:57:32.244Z,102075.07
